createdAt,value
2018-05-13T00:00:33.327Z,33.60
2018-05-13T00:03:00.508Z,33.73
2018-05-13T00:05:27.371Z,34.13
2018-05-13T00:07:53.824Z,34.40
2018-05-13T00:10:21.115Z,35.17
2018-05-13T00:12:47.541Z,34.33
2018-05-13T00:15:14.692Z,33.78
2018-05-13T00:17:41.189Z,34.13
2018-05-13T00:20:07.658Z,34.35
2018-05-13T00:22:34.127Z,32.90
2018-05-13T00:25:00.539Z,33.25
2018-05-13T00:27:27.694Z,32.33
2018-05-13T00:29:54.130Z,32.53
2018-05-13T00:32:20.531Z,32.17
2018-05-13T00:34:47.100Z,31.37
2018-05-13T00:37:13.532Z,29.65
2018-05-13T00:39:40.006Z,30.70
2018-05-13T00:42:07.289Z,29.75
2018-05-13T00:44:33.840Z,28.38
2018-05-13T00:47:00.992Z,28.48
2018-05-13T00:49:27.457Z,28.12
2018-05-13T00:51:54.746Z,28.00
2018-05-13T00:54:34.973Z,28.05
2018-05-13T00:57:01.470Z,26.37
2018-05-13T00:59:28.016Z,26.13
2018-05-13T01:01:54.464Z,24.70
2018-05-13T01:04:21.649Z,25.60
2018-05-13T01:06:48.828Z,24.87
2018-05-13T01:09:16.002Z,23.40
2018-05-13T01:11:42.438Z,23.98
2018-05-13T01:14:08.913Z,23.25
2018-05-13T01:16:35.353Z,22.30
2018-05-13T01:19:02.536Z,21.33
2018-05-13T01:21:29.721Z,22.15
2018-05-13T01:23:56.140Z,20.08
2018-05-13T01:26:24.038Z,20.67
2018-05-13T01:28:51.805Z,18.60
2018-05-13T01:31:18.298Z,19.20
2018-05-13T01:33:44.712Z,18.23
2018-05-13T01:36:11.115Z,18.52
2018-05-13T01:38:37.528Z,18.90
2018-05-13T01:41:03.996Z,19.27
2018-05-13T01:43:30.423Z,17.90
2018-05-13T01:45:56.829Z,17.67
2018-05-13T01:48:24.210Z,17.83
2018-05-13T01:50:50.641Z,18.20
2018-05-13T01:53:17.059Z,18.27
2018-05-13T01:55:43.515Z,18.45
2018-05-13T01:58:09.917Z,17.17
2018-05-13T02:00:37.095Z,17.17
2018-05-13T02:03:04.390Z,18.30
2018-05-13T02:05:30.934Z,18.52
2018-05-13T02:07:57.358Z,18.30
2018-05-13T02:10:23.813Z,17.87
2018-05-13T02:12:50.267Z,18.20
2018-05-13T02:15:16.687Z,18.90
2018-05-13T02:17:43.131Z,18.90
2018-05-13T02:20:09.598Z,18.12
2018-05-13T02:22:36.032Z,18.27
2018-05-13T02:25:02.568Z,18.25
2018-05-13T02:27:29.774Z,18.23
2018-05-13T02:29:56.220Z,17.37
2018-05-13T02:32:22.630Z,18.40
2018-05-13T02:34:49.038Z,18.75
2018-05-13T02:37:15.482Z,17.77
2018-05-13T02:39:42.755Z,18.33
2018-05-13T02:42:10.031Z,18.30
2018-05-13T02:44:36.431Z,18.65
2018-05-13T02:47:02.874Z,18.15
2018-05-13T02:49:29.319Z,17.98
2018-05-13T02:51:55.855Z,18.02
2018-05-13T02:54:23.029Z,18.42
2018-05-13T02:56:50.175Z,18.20
2018-05-13T02:59:18.093Z,17.90
2018-05-13T03:01:45.465Z,19.17
2018-05-13T03:04:12.635Z,20.02
2018-05-13T03:06:39.836Z,20.83
2018-05-13T03:09:06.294Z,21.10
2018-05-13T03:11:32.727Z,21.00
2018-05-13T03:13:59.179Z,21.42
2018-05-13T03:16:26.333Z,21.65
2018-05-13T03:18:52.764Z,20.50
2018-05-13T03:21:19.365Z,21.17
2018-05-13T03:23:46.538Z,20.23
2018-05-13T03:26:13.814Z,18.27
2018-05-13T03:28:40.983Z,18.90
2018-05-13T03:31:08.260Z,18.48
2018-05-13T03:33:35.435Z,18.90
2018-05-13T03:36:01.875Z,19.55
2018-05-13T03:38:29.078Z,19.62
2018-05-13T03:40:55.561Z,17.92
2018-05-13T03:43:22.596Z,17.62
2018-05-13T03:45:49.148Z,18.83
2018-05-13T03:48:15.601Z,18.10
2018-05-13T03:50:42.802Z,17.33
2018-05-13T03:53:09.245Z,17.40
2018-05-13T03:55:35.792Z,17.50
2018-05-13T03:58:02.309Z,17.73
2018-05-13T04:00:28.743Z,17.20
2018-05-13T04:02:55.177Z,17.75
2018-05-13T04:05:21.622Z,17.15
2018-05-13T04:11:07.927Z,16.87
2018-05-13T04:13:46.849Z,16.92
2018-05-13T04:16:13.251Z,16.80
2018-05-13T04:18:39.663Z,16.95
2018-05-13T04:21:06.110Z,17.02
2018-05-13T04:23:33.285Z,16.90
2018-05-13T04:26:00.466Z,18.67
2018-05-13T04:28:26.892Z,17.95
2018-05-13T04:30:53.314Z,18.00
2018-05-13T04:33:19.787Z,17.60
2018-05-13T04:35:46.283Z,16.30
2018-05-13T04:38:13.476Z,17.10
2018-05-13T04:40:39.891Z,17.20
2018-05-13T04:43:06.337Z,17.10
2018-05-13T04:45:33.536Z,16.50
2018-05-13T04:48:00.919Z,16.52
2018-05-13T04:50:28.107Z,17.00
2018-05-13T04:52:54.649Z,16.17
2018-05-13T04:55:21.925Z,16.23
2018-05-13T04:57:49.101Z,16.05
2018-05-13T05:00:15.577Z,16.85
2018-05-13T05:02:42.018Z,17.80
2018-05-13T05:05:08.464Z,18.17
2018-05-13T05:07:35.628Z,17.58
2018-05-13T05:10:02.856Z,18.20
2018-05-13T05:12:29.262Z,18.25
2018-05-13T05:14:56.438Z,18.35
2018-05-13T05:17:23.582Z,18.97
2018-05-13T05:19:50.012Z,18.27
2018-05-13T05:22:16.488Z,17.67
2018-05-13T05:24:42.900Z,18.75
2018-05-13T05:27:09.341Z,17.60
2018-05-13T05:29:35.742Z,17.70
2018-05-13T05:32:02.141Z,17.80
2018-05-13T05:34:29.312Z,17.20
2018-05-13T05:36:56.461Z,16.73
2018-05-13T05:39:22.945Z,15.98
2018-05-13T05:41:50.123Z,16.35
2018-05-13T05:44:16.548Z,15.13
2018-05-13T05:46:43.092Z,16.17
2018-05-13T05:49:09.514Z,13.77
2018-05-13T05:51:35.943Z,12.73
2018-05-13T05:54:03.216Z,12.75
2018-05-13T05:56:30.391Z,12.20
2018-05-13T05:58:57.545Z,12.68
2018-05-13T06:01:24.795Z,12.52
2018-05-13T06:03:51.294Z,11.67
2018-05-13T06:06:17.852Z,11.43
2018-05-13T06:08:44.299Z,11.82
2018-05-13T06:11:11.546Z,10.23
2018-05-13T06:13:38.038Z,10.25
2018-05-13T06:16:04.496Z,9.90
2018-05-13T06:18:31.056Z,9.80
2018-05-13T06:20:58.090Z,9.40
2018-05-13T06:23:24.546Z,9.73
2018-05-13T06:25:51.034Z,9.60
2018-05-13T06:28:18.513Z,8.70
2018-05-13T06:30:45.697Z,8.40
2018-05-13T06:33:12.259Z,7.90
2018-05-13T06:35:38.802Z,8.40
2018-05-13T06:38:05.947Z,7.40
2018-05-13T06:40:32.537Z,7.45
2018-05-13T06:42:58.991Z,7.97
2018-05-13T06:45:25.505Z,7.50
2018-05-13T06:47:52.212Z,7.27
2018-05-13T06:50:18.770Z,6.95
2018-05-13T06:52:45.290Z,6.20
2018-05-13T06:55:11.988Z,6.30
2018-05-13T06:57:38.546Z,5.90
2018-05-13T07:00:05.804Z,5.30
2018-05-13T07:02:32.278Z,5.10
2018-05-13T07:04:59.554Z,4.82
2018-05-13T07:07:25.989Z,4.80
2018-05-13T07:09:52.448Z,5.30
2018-05-13T07:12:19.601Z,5.00
2018-05-13T07:14:46.032Z,5.00
2018-05-13T07:17:12.544Z,4.80
2018-05-13T07:19:39.701Z,4.95
2018-05-13T07:22:06.125Z,5.20
2018-05-13T07:24:32.641Z,4.50
2018-05-13T07:26:59.280Z,4.90
2018-05-13T07:29:27.061Z,4.47
2018-05-13T07:31:53.476Z,4.10
2018-05-13T07:34:19.997Z,4.40
2018-05-13T07:36:47.172Z,4.40
2018-05-13T07:39:13.630Z,4.40
2018-05-13T07:41:40.068Z,4.10
2018-05-13T07:44:07.287Z,4.70
2018-05-13T07:46:33.797Z,4.50
2018-05-13T07:49:00.978Z,4.60
2018-05-13T07:51:27.403Z,4.10
2018-05-13T07:53:53.896Z,4.55
2018-05-13T07:56:21.031Z,4.85
2018-05-13T07:58:47.523Z,5.00
2018-05-13T08:01:13.926Z,4.62
2018-05-13T08:03:40.559Z,4.32
2018-05-13T08:06:07.169Z,4.70
2018-05-13T08:08:34.739Z,4.70
2018-05-13T08:11:01.246Z,4.80
2018-05-13T08:13:28.587Z,4.60
2018-05-13T08:15:55.174Z,4.32
2018-05-13T08:18:23.910Z,4.90
2018-05-13T08:20:50.543Z,4.90
2018-05-13T08:23:17.100Z,5.20
2018-05-13T08:25:44.373Z,5.35
2018-05-13T08:28:11.609Z,5.20
2018-05-13T08:30:38.108Z,5.10
2018-05-13T08:33:04.535Z,5.80
2018-05-13T08:35:31.707Z,5.85
2018-05-13T08:37:59.013Z,5.60
2018-05-13T08:40:26.505Z,5.70
2018-05-13T08:42:53.046Z,5.90
2018-05-13T08:45:19.873Z,5.60
2018-05-13T08:47:46.470Z,5.60
2018-05-13T08:50:13.027Z,6.15
2018-05-13T08:52:40.311Z,5.60
2018-05-13T08:55:07.375Z,6.10
2018-05-13T08:57:34.340Z,5.95
2018-05-13T09:00:03.172Z,6.20
2018-05-13T09:02:30.119Z,6.50
2018-05-13T09:04:58.558Z,6.37
2018-05-13T09:07:25.283Z,6.53
2018-05-13T09:09:51.958Z,6.20
2018-05-13T09:12:18.817Z,6.70
2018-05-13T09:14:46.979Z,5.97
2018-05-13T09:17:13.660Z,6.45
2018-05-13T09:19:41.144Z,6.50
2018-05-13T09:22:08.127Z,6.75
2018-05-13T09:24:34.671Z,6.40
2018-05-13T09:27:01.227Z,6.70
2018-05-13T09:29:28.761Z,5.80
2018-05-13T09:31:55.958Z,5.80
2018-05-13T09:34:22.515Z,6.30
2018-05-13T09:36:48.997Z,6.70
2018-05-13T09:39:16.008Z,6.40
2018-05-13T09:41:43.553Z,6.57
2018-05-13T09:44:10.615Z,6.53
2018-05-13T09:46:37.991Z,6.30
2018-05-13T09:49:04.550Z,6.80
2018-05-13T09:51:31.112Z,6.30
2018-05-13T09:53:57.778Z,6.35
2018-05-13T09:56:24.378Z,6.60
2018-05-13T09:58:51.095Z,6.28
2018-05-13T10:01:17.764Z,6.20
2018-05-13T10:03:45.146Z,5.72
2018-05-13T10:06:11.628Z,6.50
2018-05-13T10:08:38.086Z,6.55
2018-05-13T10:11:05.432Z,6.12
2018-05-13T10:13:31.990Z,6.20
2018-05-13T10:15:58.993Z,6.20
2018-05-13T10:18:25.516Z,6.00
2018-05-13T10:20:51.994Z,6.80
2018-05-13T10:23:18.615Z,6.60
2018-05-13T10:25:46.997Z,6.37
2018-05-13T10:28:14.749Z,6.70
2018-05-13T10:30:41.499Z,6.80
2018-05-13T10:33:08.719Z,6.70
2018-05-13T10:35:35.157Z,7.25
2018-05-13T10:38:02.443Z,7.07
2018-05-13T10:40:30.401Z,7.20
2018-05-13T10:42:56.919Z,7.25
2018-05-13T10:45:23.386Z,7.72
2018-05-13T10:47:49.910Z,7.50
2018-05-13T10:50:16.371Z,7.57
2018-05-13T10:52:43.061Z,7.43
2018-05-13T10:55:11.189Z,7.35
2018-05-13T10:57:37.662Z,7.80
2018-05-13T11:00:04.493Z,7.68
2018-05-13T11:02:31.246Z,7.75
2018-05-13T11:04:58.248Z,7.43
2018-05-13T11:07:24.967Z,7.50
2018-05-13T11:09:52.236Z,7.50
2018-05-13T11:12:18.766Z,8.25
2018-05-13T11:14:45.274Z,7.40
2018-05-13T11:17:11.911Z,8.20
2018-05-13T11:19:38.532Z,7.63
2018-05-13T11:22:05.963Z,7.53
2018-05-13T11:24:32.464Z,7.00
2018-05-13T11:26:59.760Z,7.07
2018-05-13T11:29:26.550Z,7.05
2018-05-13T11:31:53.005Z,7.30
2018-05-13T11:34:19.894Z,6.60
2018-05-13T11:36:46.601Z,6.62
2018-05-13T11:39:13.889Z,6.72
2018-05-13T11:41:42.205Z,7.53
2018-05-13T11:44:08.865Z,6.55
2018-05-13T11:46:35.425Z,7.13
2018-05-13T11:49:02.368Z,7.20
2018-05-13T11:51:29.255Z,7.75
2018-05-13T11:53:55.786Z,7.40
2018-05-13T11:56:23.843Z,7.60
2018-05-13T11:58:51.052Z,7.12
2018-05-13T12:01:18.334Z,7.00
2018-05-13T12:03:45.626Z,6.65
2018-05-13T12:06:12.842Z,7.10
2018-05-13T12:08:40.355Z,7.10
2018-05-13T12:11:07.511Z,6.70
2018-05-13T12:13:35.026Z,6.78
2018-05-13T12:16:01.490Z,6.72
2018-05-13T12:18:28.396Z,7.03
2018-05-13T12:20:54.935Z,6.70
2018-05-13T12:23:21.719Z,6.97
2018-05-13T12:25:48.193Z,6.12
2018-05-13T12:28:14.600Z,6.47
2018-05-13T12:30:41.275Z,6.65
2018-05-13T12:33:07.921Z,6.97
2018-05-13T12:35:34.390Z,6.90
2018-05-13T12:38:01.404Z,6.80
2018-05-13T12:40:28.278Z,6.10
2018-05-13T12:42:55.043Z,6.50
2018-05-13T12:45:21.474Z,6.18
2018-05-13T12:47:47.876Z,6.10
2018-05-13T12:50:14.359Z,5.20
2018-05-13T12:52:40.812Z,5.37
2018-05-13T12:55:07.598Z,4.95
2018-05-13T12:57:34.949Z,5.25
2018-05-13T13:00:01.534Z,5.20
2018-05-13T13:02:28.821Z,4.70
2018-05-13T13:04:55.323Z,4.20
2018-05-13T13:07:21.764Z,4.70
2018-05-13T13:09:48.206Z,4.60
2018-05-13T13:12:15.054Z,4.50
2018-05-13T13:14:42.275Z,4.60
2018-05-13T13:17:09.351Z,4.40
2018-05-13T13:19:35.892Z,4.40
2018-05-13T13:22:04.457Z,4.20
2018-05-13T13:24:31.097Z,3.80
2018-05-13T13:26:57.578Z,3.87
2018-05-13T13:29:25.124Z,3.67
2018-05-13T13:31:51.609Z,3.30
2018-05-13T13:34:18.828Z,3.50
2018-05-13T13:36:46.950Z,3.30
2018-05-13T13:39:13.722Z,3.00
2018-05-13T13:41:40.458Z,3.33
2018-05-13T13:44:07.448Z,2.85
2018-05-13T13:46:33.904Z,2.62
2018-05-13T13:49:00.406Z,2.70
2018-05-13T13:51:28.576Z,2.65
2018-05-13T13:53:55.047Z,2.87
2018-05-13T13:56:22.824Z,2.90
2018-05-13T13:58:49.397Z,2.30
2018-05-13T14:01:16.673Z,3.05
2018-05-13T14:03:43.365Z,2.80
2018-05-13T14:06:09.808Z,3.03
2018-05-13T14:08:36.525Z,3.08
2018-05-13T14:11:04.139Z,2.97
2018-05-13T14:13:30.653Z,4.20
2018-05-13T14:15:57.085Z,3.30
2018-05-13T14:18:23.611Z,3.00
2018-05-13T14:20:50.500Z,3.20
2018-05-13T14:23:18.064Z,3.10
2018-05-13T14:25:45.275Z,3.20
2018-05-13T14:28:11.771Z,3.10
2018-05-13T14:30:38.393Z,3.10
2018-05-13T14:33:05.027Z,3.30
2018-05-13T14:35:31.628Z,3.08
2018-05-13T14:37:58.330Z,3.40
2018-05-13T14:40:25.144Z,3.35
2018-05-13T14:42:51.596Z,3.10
2018-05-13T14:45:18.187Z,3.65
2018-05-13T14:47:44.928Z,3.53
2018-05-13T14:50:11.707Z,3.15
2018-05-13T14:52:38.928Z,3.50
2018-05-13T14:55:05.734Z,4.03
2018-05-13T14:57:32.459Z,3.50
2018-05-13T14:59:59.819Z,3.40
2018-05-13T15:02:26.600Z,3.47
2018-05-13T15:04:53.361Z,3.30
2018-05-13T15:07:29.723Z,3.17
2018-05-13T15:09:57.251Z,3.40
2018-05-13T15:12:23.698Z,3.30
2018-05-13T15:14:51.053Z,3.25
2018-05-13T15:17:18.429Z,3.60
2018-05-13T15:19:45.632Z,3.33
2018-05-13T15:22:14.227Z,3.00
2018-05-13T15:24:41.080Z,3.40
2018-05-13T15:27:07.592Z,3.17
2018-05-13T15:29:35.256Z,3.00
2018-05-13T15:32:02.007Z,3.40
2018-05-13T15:34:28.592Z,3.30
2018-05-13T15:36:56.218Z,3.00
2018-05-13T15:39:24.363Z,3.35
2018-05-13T15:41:51.382Z,3.10
2018-05-13T15:44:17.881Z,3.00
2018-05-13T15:46:44.701Z,2.70
2018-05-13T15:49:11.975Z,2.50
2018-05-13T15:51:38.636Z,2.60
2018-05-13T15:54:05.109Z,2.60
2018-05-13T15:56:31.663Z,2.50
2018-05-13T15:58:58.109Z,3.08
2018-05-13T16:01:25.492Z,2.20
2018-05-13T16:03:52.250Z,2.80
2018-05-13T16:06:19.292Z,2.55
2018-05-13T16:08:46.684Z,2.60
2018-05-13T16:11:13.846Z,2.40
2018-05-13T16:13:40.449Z,2.60
2018-05-13T16:16:06.963Z,2.50
2018-05-13T16:18:34.464Z,2.37
2018-05-13T16:21:01.053Z,2.40
2018-05-13T16:23:28.293Z,2.30
2018-05-13T16:25:55.059Z,2.35
2018-05-13T16:28:21.824Z,2.50
2018-05-13T16:30:49.104Z,2.33
2018-05-13T16:33:16.420Z,2.75
2018-05-13T16:35:43.048Z,2.80
2018-05-13T16:38:10.331Z,2.67
2018-05-13T16:40:36.794Z,2.70
2018-05-13T16:43:03.574Z,2.60
2018-05-13T16:45:30.062Z,2.83
2018-05-13T16:47:57.688Z,3.00
2018-05-13T16:50:24.261Z,2.90
2018-05-13T16:52:50.990Z,3.20
2018-05-13T16:55:17.652Z,3.00
2018-05-13T16:57:44.246Z,3.00
2018-05-13T17:00:10.889Z,2.72
2018-05-13T17:02:37.701Z,2.80
2018-05-13T17:05:05.271Z,3.10
2018-05-13T17:07:31.765Z,3.10
2018-05-13T17:09:58.387Z,2.90
2018-05-13T17:12:25.675Z,2.60
2018-05-13T17:14:53.165Z,2.87
2018-05-13T17:17:20.069Z,3.12
2018-05-13T17:19:46.885Z,3.20
2018-05-13T17:22:15.010Z,3.28
2018-05-13T17:24:41.552Z,3.17
2018-05-13T17:27:08.042Z,3.50
2018-05-13T17:29:34.502Z,3.60
2018-05-13T17:32:01.166Z,3.50
2018-05-13T17:34:28.049Z,3.30
2018-05-13T17:36:54.551Z,3.50
2018-05-13T17:39:21.285Z,3.58
2018-05-13T17:41:48.914Z,4.00
2018-05-13T17:44:17.069Z,3.73
2018-05-13T17:46:44.361Z,3.72
2018-05-13T17:49:11.207Z,3.50
2018-05-13T17:51:38.642Z,3.42
2018-05-13T17:54:05.219Z,3.60
2018-05-13T17:56:31.746Z,3.42
2018-05-13T17:58:58.851Z,3.60
2018-05-13T18:01:25.411Z,3.30
2018-05-13T18:03:52.871Z,3.90
2018-05-13T18:06:20.183Z,3.60
2018-05-13T18:08:48.281Z,3.60
2018-05-13T18:11:16.157Z,3.33
2018-05-13T18:13:43.614Z,3.60
2018-05-13T18:16:10.568Z,3.60
2018-05-13T18:18:37.349Z,3.80
2018-05-13T18:21:04.796Z,3.50
2018-05-13T18:23:31.264Z,3.70
2018-05-13T18:25:57.894Z,3.62
2018-05-13T18:28:25.433Z,3.50
2018-05-13T18:30:53.720Z,3.65
2018-05-13T18:33:23.009Z,3.53
2018-05-13T18:35:52.750Z,4.10
2018-05-13T18:38:21.445Z,3.90
2018-05-13T18:40:48.514Z,3.80
2018-05-13T18:43:15.685Z,3.62
2018-05-13T18:45:45.267Z,4.07
2018-05-13T18:48:13.899Z,3.90
2018-05-13T18:50:42.177Z,4.00
2018-05-13T18:53:10.704Z,3.67
2018-05-13T18:55:38.594Z,3.67
2018-05-13T18:58:05.574Z,3.95
2018-05-13T19:00:33.566Z,4.20
2018-05-13T19:03:00.860Z,4.05
2018-05-13T19:05:28.190Z,3.92
2018-05-13T19:07:55.887Z,4.10
2018-05-13T19:10:22.846Z,4.12
2018-05-13T19:12:49.938Z,4.47
2018-05-13T19:15:20.140Z,4.40
2018-05-13T19:17:49.605Z,4.50
2018-05-13T19:20:18.715Z,4.40
2018-05-13T19:22:46.115Z,4.50
2018-05-13T19:25:14.480Z,4.40
2018-05-13T19:27:43.600Z,4.37
2018-05-13T19:30:10.720Z,4.45
2018-05-13T19:32:37.848Z,4.47
2018-05-13T19:35:06.410Z,4.50
2018-05-13T19:37:34.289Z,4.20
2018-05-13T19:40:01.924Z,4.22
2018-05-13T19:42:28.793Z,4.20
2018-05-13T19:44:55.958Z,4.40
2018-05-13T19:47:24.582Z,4.68
2018-05-13T19:49:53.250Z,4.50
2018-05-13T19:52:19.832Z,4.10
2018-05-13T19:54:46.694Z,4.32
2018-05-13T19:57:13.944Z,4.00
2018-05-13T19:59:40.733Z,4.75
2018-05-13T20:02:08.318Z,4.40
2018-05-13T20:04:34.975Z,4.68
2018-05-13T20:07:02.081Z,4.70
2018-05-13T20:09:30.403Z,4.50
2018-05-13T20:13:56.656Z,4.30
2018-05-13T20:16:23.910Z,4.22
2018-05-13T20:18:50.598Z,4.10
2018-05-13T20:21:17.001Z,4.40
2018-05-13T20:23:43.440Z,4.18
2018-05-13T20:26:10.412Z,4.40
2018-05-13T20:28:36.915Z,4.12
2018-05-13T20:31:04.092Z,4.12
2018-05-13T20:33:31.276Z,4.20
2018-05-13T20:35:58.481Z,4.50
2018-05-13T20:38:24.981Z,4.43
2018-05-13T20:40:51.472Z,4.40
2018-05-13T20:43:18.028Z,4.60
2018-05-13T20:45:44.979Z,4.80
2018-05-13T20:48:12.140Z,4.22
2018-05-13T20:50:38.689Z,4.20
2018-05-13T20:53:05.793Z,4.28
2018-05-13T20:55:32.239Z,4.50
2018-05-13T20:57:59.419Z,4.20
2018-05-13T21:00:26.584Z,4.20
2018-05-13T21:02:53.725Z,4.50
2018-05-13T21:05:20.223Z,4.40
2018-05-13T21:07:46.682Z,4.03
2018-05-13T21:10:13.954Z,4.70
2018-05-13T21:12:40.574Z,4.40
2018-05-13T21:15:07.971Z,4.20
2018-05-13T21:17:35.156Z,4.60
2018-05-13T21:20:02.442Z,4.40
2018-05-13T21:22:28.890Z,4.40
2018-05-13T21:24:56.172Z,4.75
2018-05-13T21:27:23.342Z,4.50
2018-05-13T21:29:50.482Z,4.15
2018-05-13T21:32:19.165Z,4.40
2018-05-13T21:34:45.680Z,4.60
2018-05-13T21:37:13.237Z,4.30
2018-05-13T21:39:39.762Z,4.47
2018-05-13T21:42:06.205Z,4.00
2018-05-13T21:44:32.730Z,4.30
2018-05-13T21:46:59.870Z,4.05
2018-05-13T21:49:26.316Z,4.50
2018-05-13T21:51:52.726Z,4.50
2018-05-13T21:54:19.155Z,4.45
2018-05-13T21:56:46.443Z,4.30
2018-05-13T21:59:13.624Z,4.45
2018-05-13T22:01:40.127Z,4.40
2018-05-13T22:04:06.612Z,4.15
2018-05-13T22:06:33.012Z,4.50
2018-05-13T22:08:59.543Z,4.47
2018-05-13T22:11:26.704Z,4.15
2018-05-13T22:13:53.930Z,4.30
2018-05-13T22:16:20.395Z,4.60
2018-05-13T22:18:46.822Z,4.40
2018-05-13T22:21:13.358Z,4.28
2018-05-13T22:23:40.633Z,4.50
2018-05-13T22:26:07.785Z,4.30
2018-05-13T22:28:34.176Z,4.40
2018-05-13T22:31:00.661Z,4.50
2018-05-13T22:33:27.057Z,4.90
2018-05-13T22:35:54.227Z,4.45
2018-05-13T22:38:21.379Z,4.90
2018-05-13T22:40:47.757Z,4.70
2018-05-13T22:43:14.907Z,4.60
2018-05-13T22:45:41.341Z,4.37
2018-05-13T22:48:07.857Z,4.70
2018-05-13T22:50:35.161Z,4.80
2018-05-13T22:53:01.559Z,4.50
2018-05-13T22:55:28.007Z,4.50
2018-05-13T22:57:54.916Z,4.57
2018-05-13T23:00:21.368Z,4.40
2018-05-13T23:02:47.792Z,4.60
2018-05-13T23:05:14.206Z,4.70
2018-05-13T23:07:40.678Z,4.60
2018-05-13T23:10:07.182Z,4.20
2018-05-13T23:12:34.324Z,4.60
2018-05-13T23:15:01.641Z,4.60
2018-05-13T23:17:28.054Z,4.50
2018-05-13T23:19:54.552Z,4.72
2018-05-13T23:22:33.360Z,4.60
2018-05-13T23:24:59.843Z,4.78
2018-05-13T23:27:26.259Z,4.70
2018-05-13T23:29:53.367Z,4.50
2018-05-13T23:32:20.651Z,4.75
2018-05-13T23:34:47.091Z,4.90
2018-05-13T23:37:14.757Z,5.00
2018-05-13T23:39:41.209Z,4.80
2018-05-13T23:42:07.645Z,4.40
2018-05-13T23:44:34.148Z,5.00
2018-05-13T23:47:01.851Z,4.60
2018-05-13T23:49:28.396Z,4.80
2018-05-13T23:51:54.951Z,5.03
2018-05-13T23:54:22.229Z,4.55
2018-05-13T23:56:48.681Z,4.80
2018-05-13T23:59:15.898Z,4.80
